KASX

John F Kennedy Memorial Airport

Ashland, Wisconsin, USA
METAR KASX 220553Z AUTO 21003KT 10SM CLR 00/M06 A3036 RMK AO2 SLP288 T00001061 10044 21028 401561044 58003 $
Observed Flight Rules
Apr-22 @ 05:53 UTC (55 minutes ago) Visual Flight Rules
Wind Visibility Clouds
210° at 3 knots 10 miles
  • Clear skies
Temperatures Readings
Current 0°C / 32°F
Dewpoint -6°C / 21°F
Humidity 64%
Altimeter 30.36" Hg
Pressure 1028.8 hPa
Elevation 251
METAR KASX 220553Z AUTO 21003KT 10SM CLR 00/M06 A3036 RMK AO2 SLP288 T00001061 10044 21028 401561044 58003 $
Observed Flight Rules
Apr-22 @ 05:53 UTC
(55 minutes ago)
VFR
Wind Visibility
210° at 3 knots 10 miles
Clouds
  • Clear skies
Temperature Dewpoint
0°C / 32°F -6°C / 21°F
Humidity Altimeter Pressure
64% 30.36" Hg 1028.8 hPa